Terminal Aerodrome Forecast
Issued by NWS Upton, NY

Current Version | Previous Version | Text Only | Print | Product List | Glossary On
Versions: 1 2 3 4 5 6 7 8 9 10 11 12 13 14 15 16 17 18 19 20 21 22 23 24 25 26 27 28 29 30 31 32 33 34
035
FTUS41 KOKX 281931 AAA
TAFEWR
TAF AMD
KEWR 281931Z 2820/2924 15008KT P6SM OVC150
     FM282100 16008KT P6SM -RA BKN060 OVC100
     FM290300 07007KT P6SM -RA OVC060
     FM290900 09009KT P6SM BKN060
     FM292100 12008KT P6SM OVC060=

USA.gov is the U.S. government's official web portal to all federal, state and local government web resources and services.